sensor_id;sensor_type;location;lat;lon;timestamp;pressure;altitude;pressure_sealevel;temperature;humidity
44839;BME280;30576;42.098;24.876;2023-09-18T00:01:12;100202.03;;;20.84;70.40
44839;BME280;30576;42.098;24.876;2023-09-18T00:04:13;100236.53;;;21.27;69.72
44839;BME280;30576;42.098;24.876;2023-09-18T00:06:48;100162.69;;;20.85;69.16
44839;BME280;30576;42.098;24.876;2023-09-18T00:09:19;100150.75;;;20.54;69.53
44839;BME280;30576;42.098;24.876;2023-09-18T00:11:46;100171.47;;;20.69;69.96
44839;BME280;30576;42.098;24.876;2023-09-18T00:14:11;100196.97;;;20.78;69.94
44839;BME280;30576;42.098;24.876;2023-09-18T00:16:37;100138.56;;;20.48;70.16
44839;BME280;30576;42.098;24.876;2023-09-18T00:19:04;100168.59;;;20.55;70.72
44839;BME280;30576;42.098;24.876;2023-09-18T00:21:33;100112.50;;;20.33;70.08
44839;BME280;30576;42.098;24.876;2023-09-18T00:24:04;100126.09;;;20.47;70.03
44839;BME280;30576;42.098;24.876;2023-09-18T00:26:34;100136.72;;;20.49;69.82
44839;BME280;30576;42.098;24.876;2023-09-18T00:28:59;100166.41;;;20.82;69.41
44839;BME280;30576;42.098;24.876;2023-09-18T00:46:59;100134.94;;;21.03;67.86
44839;BME280;30576;42.098;24.876;2023-09-18T00:49:25;100143.88;;;21.04;67.71
44839;BME280;30576;42.098;24.876;2023-09-18T00:51:51;100168.00;;;21.04;67.84
44839;BME280;30576;42.098;24.876;2023-09-18T00:54:38;100147.78;;;20.79;68.45
44839;BME280;30576;42.098;24.876;2023-09-18T00:57:14;100186.50;;;20.91;68.90
44839;BME280;30576;42.098;24.876;2023-09-18T00:59:40;100187.13;;;20.79;69.20
44839;BME280;30576;42.098;24.876;2023-09-18T01:02:07;100114.53;;;20.47;68.78
44839;BME280;30576;42.098;24.876;2023-09-18T01:04:33;100153.06;;;20.81;68.54
44839;BME280;30576;42.098;24.876;2023-09-18T01:07:01;100164.50;;;20.84;68.69
44839;BME280;30576;42.098;24.876;2023-09-18T01:09:33;100156.16;;;20.90;68.43
44839;BME280;30576;42.098;24.876;2023-09-18T01:17:22;100165.69;;;20.96;68.18
44839;BME280;30576;42.098;24.876;2023-09-18T01:19:47;100131.69;;;20.97;67.78
44839;BME280;30576;42.098;24.876;2023-09-18T01:22:17;100150.94;;;21.05;67.72
44839;BME280;30576;42.098;24.876;2023-09-18T01:24:44;100169.78;;;21.21;67.77
44839;BME280;30576;42.098;24.876;2023-09-18T01:27:11;100176.72;;;21.25;67.83
44839;BME280;30576;42.098;24.876;2023-09-18T01:29:46;100128.56;;;20.88;67.86
44839;BME280;30576;42.098;24.876;2023-09-18T01:32:17;100135.31;;;20.96;67.59
44839;BME280;30576;42.098;24.876;2023-09-18T01:34:49;100171.22;;;21.28;67.36
44839;BME280;30576;42.098;24.876;2023-09-18T01:39:56;100119.53;;;20.89;67.63
44839;BME280;30576;42.098;24.876;2023-09-18T01:48:11;100109.25;;;20.99;67.15
44839;BME280;30576;42.098;24.876;2023-09-18T01:53:11;100168.59;;;21.26;67.28
44839;BME280;30576;42.098;24.876;2023-09-18T01:55:37;100168.75;;;21.41;67.18
44839;BME280;30576;42.098;24.876;2023-09-18T01:58:04;100149.75;;;21.28;66.99
44839;BME280;30576;42.098;24.876;2023-09-18T02:00:29;100120.63;;;21.20;66.81
44839;BME280;30576;42.098;24.876;2023-09-18T02:02:57;100140.69;;;21.31;66.63
44839;BME280;30576;42.098;24.876;2023-09-18T02:05:23;100159.84;;;21.40;66.49
44839;BME280;30576;42.098;24.876;2023-09-18T02:07:49;100182.97;;;21.43;66.72
44839;BME280;30576;42.098;24.876;2023-09-18T02:10:15;100158.81;;;21.43;66.31
44839;BME280;30576;42.098;24.876;2023-09-18T02:12:40;100147.28;;;21.41;65.85
44839;BME280;30576;42.098;24.876;2023-09-18T02:18:01;100132.22;;;21.21;66.09
44839;BME280;30576;42.098;24.876;2023-09-18T02:20:27;100143.03;;;21.19;66.19
44839;BME280;30576;42.098;24.876;2023-09-18T02:22:54;100197.50;;;21.56;66.19
44839;BME280;30576;42.098;24.876;2023-09-18T02:25:19;100177.44;;;21.46;66.18
44839;BME280;30576;42.098;24.876;2023-09-18T02:27:46;100144.84;;;21.36;65.85
44839;BME280;30576;42.098;24.876;2023-09-18T02:30:11;100179.84;;;21.52;65.76
44839;BME280;30576;42.098;24.876;2023-09-18T02:36:01;100181.72;;;21.50;65.71
44839;BME280;30576;42.098;24.876;2023-09-18T02:38:32;100175.84;;;21.59;65.63
44839;BME280;30576;42.098;24.876;2023-09-18T02:41:37;100125.94;;;21.22;65.63
44839;BME280;30576;42.098;24.876;2023-09-18T02:44:06;100132.16;;;21.22;65.69
44839;BME280;30576;42.098;24.876;2023-09-18T02:46:32;100179.25;;;21.45;65.28
44839;BME280;30576;42.098;24.876;2023-09-18T02:48:58;100154.34;;;21.26;65.54
44839;BME280;30576;42.098;24.876;2023-09-18T02:51:23;100140.91;;;21.26;65.56
44839;BME280;30576;42.098;24.876;2023-09-18T02:53:50;100166.00;;;21.25;66.26
44839;BME280;30576;42.098;24.876;2023-09-18T02:56:16;100151.97;;;21.20;66.22
44839;BME280;30576;42.098;24.876;2023-09-18T02:58:56;100138.88;;;21.14;66.19
44839;BME280;30576;42.098;24.876;2023-09-18T03:01:24;100159.78;;;21.24;66.46
44839;BME280;30576;42.098;24.876;2023-09-18T03:03:50;100187.13;;;21.49;66.60
44839;BME280;30576;42.098;24.876;2023-09-18T03:06:16;100182.53;;;21.52;66.20
44839;BME280;30576;42.098;24.876;2023-09-18T03:08:42;100149.50;;;21.33;66.04
44839;BME280;30576;42.098;24.876;2023-09-18T03:11:12;100207.28;;;21.57;66.38
44839;BME280;30576;42.098;24.876;2023-09-18T03:13:43;100184.84;;;21.41;66.47
44839;BME280;30576;42.098;24.876;2023-09-18T03:16:10;100158.13;;;21.22;66.54
44839;BME280;30576;42.098;24.876;2023-09-18T03:18:36;100217.69;;;21.63;66.16
44839;BME280;30576;42.098;24.876;2023-09-18T03:21:02;100166.56;;;21.49;65.78
44839;BME280;30576;42.098;24.876;2023-09-18T03:23:27;100165.28;;;21.39;65.63
44839;BME280;30576;42.098;24.876;2023-09-18T03:25:53;100192.97;;;21.39;66.30
44839;BME280;30576;42.098;24.876;2023-09-18T03:28:19;100167.34;;;21.34;66.15
44839;BME280;30576;42.098;24.876;2023-09-18T03:30:44;100160.56;;;21.26;66.13
44839;BME280;30576;42.098;24.876;2023-09-18T03:33:10;100173.56;;;21.34;66.26
44839;BME280;30576;42.098;24.876;2023-09-18T03:35:46;100172.38;;;21.22;66.18
44839;BME280;30576;42.098;24.876;2023-09-18T03:38:14;100162.63;;;21.21;66.56
44839;BME280;30576;42.098;24.876;2023-09-18T03:40:39;100176.81;;;21.23;67.17
44839;BME280;30576;42.098;24.876;2023-09-18T03:43:05;100163.19;;;21.10;67.73
44839;BME280;30576;42.098;24.876;2023-09-18T03:45:30;100149.59;;;21.14;67.68
44839;BME280;30576;42.098;24.876;2023-09-18T03:47:56;100151.31;;;21.15;67.60
44839;BME280;30576;42.098;24.876;2023-09-18T03:50:21;100140.81;;;21.10;67.54
44839;BME280;30576;42.098;24.876;2023-09-18T03:52:50;100172.63;;;21.35;67.62
44839;BME280;30576;42.098;24.876;2023-09-18T03:55:40;100171.91;;;21.32;67.69
44839;BME280;30576;42.098;24.876;2023-09-18T03:58:10;100145.97;;;21.15;67.54
44839;BME280;30576;42.098;24.876;2023-09-18T04:00:43;100172.16;;;21.27;67.63
44839;BME280;30576;42.098;24.876;2023-09-18T04:03:31;100184.00;;;21.23;67.62
44839;BME280;30576;42.098;24.876;2023-09-18T04:05:58;100162.22;;;21.11;67.79
44839;BME280;30576;42.098;24.876;2023-09-18T04:08:24;100200.72;;;21.45;67.68
44839;BME280;30576;42.098;24.876;2023-09-18T04:11:06;100168.91;;;21.38;67.84
44839;BME280;30576;42.098;24.876;2023-09-18T04:13:36;100168.00;;;21.21;67.95
44839;BME280;30576;42.098;24.876;2023-09-18T04:16:05;100160.09;;;21.18;68.32
44839;BME280;30576;42.098;24.876;2023-09-18T04:18:33;100142.97;;;21.21;68.18
44839;BME280;30576;42.098;24.876;2023-09-18T04:21:01;100160.41;;;21.29;67.65
44839;BME280;30576;42.098;24.876;2023-09-18T04:23:27;100164.50;;;21.37;67.34
44839;BME280;30576;42.098;24.876;2023-09-18T04:25:53;100175.16;;;21.38;67.33
44839;BME280;30576;42.098;24.876;2023-09-18T04:28:20;100188.75;;;21.53;67.41
44839;BME280;30576;42.098;24.876;2023-09-18T04:30:49;100176.47;;;21.47;67.74
44839;BME280;30576;42.098;24.876;2023-09-18T04:33:15;100212.69;;;21.73;67.63
44839;BME280;30576;42.098;24.876;2023-09-18T04:35:41;100174.09;;;21.41;68.13
44839;BME280;30576;42.098;24.876;2023-09-18T04:38:07;100173.78;;;21.47;67.57
44839;BME280;30576;42.098;24.876;2023-09-18T04:40:36;100203.78;;;21.73;67.43
44839;BME280;30576;42.098;24.876;2023-09-18T04:43:02;100206.31;;;21.76;67.60
44839;BME280;30576;42.098;24.876;2023-09-18T04:45:30;100204.72;;;21.72;67.54
44839;BME280;30576;42.098;24.876;2023-09-18T04:47:57;100166.72;;;21.46;66.80
44839;BME280;30576;42.098;24.876;2023-09-18T04:50:22;100164.25;;;21.41;67.36
44839;BME280;30576;42.098;24.876;2023-09-18T04:52:49;100163.13;;;21.45;66.70
44839;BME280;30576;42.098;24.876;2023-09-18T05:00:40;100219.28;;;22.01;66.52
44839;BME280;30576;42.098;24.876;2023-09-18T05:03:21;100175.59;;;21.64;65.88
44839;BME280;30576;42.098;24.876;2023-09-18T05:05:47;100194.31;;;21.83;66.15
44839;BME280;30576;42.098;24.876;2023-09-18T05:08:12;100150.34;;;21.68;65.87
44839;BME280;30576;42.098;24.876;2023-09-18T05:10:38;100199.69;;;21.83;65.97
44839;BME280;30576;42.098;24.876;2023-09-18T05:13:04;100188.03;;;21.82;66.10
44839;BME280;30576;42.098;24.876;2023-09-18T05:15:30;100205.06;;;21.99;65.91
44839;BME280;30576;42.098;24.876;2023-09-18T05:17:57;100190.78;;;21.98;65.85
44839;BME280;30576;42.098;24.876;2023-09-18T05:20:24;100223.91;;;22.15;65.44
44839;BME280;30576;42.098;24.876;2023-09-18T05:22:51;100177.13;;;21.86;65.46
44839;BME280;30576;42.098;24.876;2023-09-18T05:25:23;100195.81;;;22.05;65.56
44839;BME280;30576;42.098;24.876;2023-09-18T05:27:51;100190.53;;;22.19;64.34
44839;BME280;30576;42.098;24.876;2023-09-18T05:30:35;100191.88;;;22.28;63.08
44839;BME280;30576;42.098;24.876;2023-09-18T05:33:04;100198.38;;;22.40;62.66
44839;BME280;30576;42.098;24.876;2023-09-18T05:35:31;100179.41;;;22.43;61.60
44839;BME280;30576;42.098;24.876;2023-09-18T05:37:57;100204.47;;;22.59;60.33
44839;BME280;30576;42.098;24.876;2023-09-18T05:40:24;100168.81;;;22.40;60.18
44839;BME280;30576;42.098;24.876;2023-09-18T05:42:53;100178.28;;;22.47;59.90
44839;BME280;30576;42.098;24.876;2023-09-18T05:45:18;100203.50;;;22.76;59.62
44839;BME280;30576;42.098;24.876;2023-09-18T05:47:44;100193.94;;;22.70;58.74
44839;BME280;30576;42.098;24.876;2023-09-18T05:50:11;100249.91;;;22.96;58.92
44839;BME280;30576;42.098;24.876;2023-09-18T05:52:40;100156.41;;;22.69;58.31
44839;BME280;30576;42.098;24.876;2023-09-18T05:55:06;100204.00;;;22.83;57.98
44839;BME280;30576;42.098;24.876;2023-09-18T05:57:35;100173.19;;;22.88;58.11
44839;BME280;30576;42.098;24.876;2023-09-18T06:00:01;100193.56;;;23.09;58.21
44839;BME280;30576;42.098;24.876;2023-09-18T06:02:26;100192.34;;;23.14;57.27
44839;BME280;30576;42.098;24.876;2023-09-18T06:04:56;100178.47;;;23.36;56.45
44839;BME280;30576;42.098;24.876;2023-09-18T06:07:24;100186.53;;;23.22;56.23
44839;BME280;30576;42.098;24.876;2023-09-18T06:09:50;100199.34;;;23.47;55.22
44839;BME280;30576;42.098;24.876;2023-09-18T06:12:15;100222.38;;;23.67;55.94
44839;BME280;30576;42.098;24.876;2023-09-18T06:14:41;100170.72;;;23.75;55.62
44839;BME280;30576;42.098;24.876;2023-09-18T06:17:14;100188.25;;;24.11;54.47
44839;BME280;30576;42.098;24.876;2023-09-18T06:23:21;100254.91;;;24.79;53.34
44839;BME280;30576;42.098;24.876;2023-09-18T06:25:47;100217.03;;;24.39;53.21
44839;BME280;30576;42.098;24.876;2023-09-18T06:28:22;100219.06;;;24.21;52.84
44839;BME280;30576;42.098;24.876;2023-09-18T06:30:48;100171.38;;;23.78;53.25
44839;BME280;30576;42.098;24.876;2023-09-18T06:33:20;100187.97;;;24.01;53.24
44839;BME280;30576;42.098;24.876;2023-09-18T06:36:10;100187.84;;;24.31;51.60
44839;BME280;30576;42.098;24.876;2023-09-18T06:38:49;100194.97;;;24.74;50.82
44839;BME280;30576;42.098;24.876;2023-09-18T06:41:24;100186.44;;;24.67;50.40
44839;BME280;30576;42.098;24.876;2023-09-18T06:43:55;100247.53;;;24.69;51.52
44839;BME280;30576;42.098;24.876;2023-09-18T06:46:30;100205.28;;;24.26;50.99
44839;BME280;30576;42.098;24.876;2023-09-18T06:49:29;100179.88;;;24.30;50.80
44839;BME280;30576;42.098;24.876;2023-09-18T06:51:56;100199.69;;;24.29;51.21
44839;BME280;30576;42.098;24.876;2023-09-18T06:54:23;100210.81;;;24.52;50.31
44839;BME280;30576;42.098;24.876;2023-09-18T06:57:15;100264.22;;;24.88;50.88
44839;BME280;30576;42.098;24.876;2023-09-18T06:59:41;100213.84;;;24.89;49.68
44839;BME280;30576;42.098;24.876;2023-09-18T07:05:37;100195.19;;;24.98;49.08
44839;BME280;30576;42.098;24.876;2023-09-18T07:11:27;100196.00;;;24.86;49.10
44839;BME280;30576;42.098;24.876;2023-09-18T07:13:57;100185.66;;;24.93;49.24
44839;BME280;30576;42.098;24.876;2023-09-18T07:19:52;100259.28;;;25.62;48.83
44839;BME280;30576;42.098;24.876;2023-09-18T07:25:04;100194.69;;;25.85;46.46
44839;BME280;30576;42.098;24.876;2023-09-18T07:27:42;100190.66;;;26.16;45.87
44839;BME280;30576;42.098;24.876;2023-09-18T07:38:34;100213.16;;;25.91;47.15
44839;BME280;30576;42.098;24.876;2023-09-18T07:41:15;100211.38;;;26.41;45.69
44839;BME280;30576;42.098;24.876;2023-09-18T07:43:41;100203.94;;;26.32;45.59
44839;BME280;30576;42.098;24.876;2023-09-18T07:49:12;100197.50;;;25.83;46.39
44839;BME280;30576;42.098;24.876;2023-09-18T07:52:13;100253.06;;;26.13;46.26
44839;BME280;30576;42.098;24.876;2023-09-18T07:54:43;100208.72;;;25.90;46.76
44839;BME280;30576;42.098;24.876;2023-09-18T07:57:10;100221.50;;;26.01;45.55
44839;BME280;30576;42.098;24.876;2023-09-18T07:59:37;100250.47;;;26.24;45.92
44839;BME280;30576;42.098;24.876;2023-09-18T08:05:08;100198.13;;;26.13;44.86
44839;BME280;30576;42.098;24.876;2023-09-18T08:08:32;100208.28;;;26.22;44.67
44839;BME280;30576;42.098;24.876;2023-09-18T08:14:04;100195.31;;;25.88;46.42
44839;BME280;30576;42.098;24.876;2023-09-18T08:17:12;100192.94;;;25.45;46.73
44839;BME280;30576;42.098;24.876;2023-09-18T08:19:48;100171.53;;;25.42;46.64
44839;BME280;30576;42.098;24.876;2023-09-18T08:22:42;100219.41;;;25.91;45.55
44839;BME280;30576;42.098;24.876;2023-09-18T08:25:08;100185.63;;;25.86;46.05
44839;BME280;30576;42.098;24.876;2023-09-18T08:27:38;100203.66;;;25.60;45.85
44839;BME280;30576;42.098;24.876;2023-09-18T08:30:08;100225.78;;;25.78;45.91
44839;BME280;30576;42.098;24.876;2023-09-18T08:32:36;100209.91;;;25.73;45.76
44839;BME280;30576;42.098;24.876;2023-09-18T08:35:02;100255.56;;;26.66;46.00
44839;BME280;30576;42.098;24.876;2023-09-18T08:37:27;100210.91;;;26.60;44.00
44839;BME280;30576;42.098;24.876;2023-09-18T08:39:53;100194.47;;;26.14;44.91
44839;BME280;30576;42.098;24.876;2023-09-18T08:42:20;100213.78;;;25.95;44.96
44839;BME280;30576;42.098;24.876;2023-09-18T08:44:49;100198.66;;;26.18;44.95
44839;BME280;30576;42.098;24.876;2023-09-18T08:47:17;100175.31;;;26.17;44.02
44839;BME280;30576;42.098;24.876;2023-09-18T08:49:45;100150.03;;;25.92;43.52
44839;BME280;30576;42.098;24.876;2023-09-18T08:52:13;100159.50;;;26.23;43.30
44839;BME280;30576;42.098;24.876;2023-09-18T08:54:40;100135.69;;;25.66;43.94
44839;BME280;30576;42.098;24.876;2023-09-18T08:57:06;100196.81;;;26.55;43.46
44839;BME280;30576;42.098;24.876;2023-09-18T08:59:34;100197.38;;;26.85;43.34
44839;BME280;30576;42.098;24.876;2023-09-18T09:02:00;100157.72;;;26.72;42.87
44839;BME280;30576;42.098;24.876;2023-09-18T09:04:26;100183.34;;;27.04;42.64
44839;BME280;30576;42.098;24.876;2023-09-18T09:06:52;100180.91;;;27.12;42.14
44839;BME280;30576;42.098;24.876;2023-09-18T09:09:17;100204.16;;;27.39;41.59
44839;BME280;30576;42.098;24.876;2023-09-18T09:11:50;100164.88;;;26.97;41.28
44839;BME280;30576;42.098;24.876;2023-09-18T09:14:16;100174.88;;;27.08;41.22
44839;BME280;30576;42.098;24.876;2023-09-18T09:16:48;100166.91;;;27.29;40.70
44839;BME280;30576;42.098;24.876;2023-09-18T09:19:18;100155.38;;;27.03;41.58
44839;BME280;30576;42.098;24.876;2023-09-18T09:21:44;100163.22;;;26.84;41.15
44839;BME280;30576;42.098;24.876;2023-09-18T09:24:11;100145.13;;;26.84;41.73
44839;BME280;30576;42.098;24.876;2023-09-18T09:26:57;100169.81;;;26.79;40.41
44839;BME280;30576;42.098;24.876;2023-09-18T09:29:23;100137.84;;;26.60;41.63
44839;BME280;30576;42.098;24.876;2023-09-18T09:31:49;100146.78;;;26.74;41.97
44839;BME280;30576;42.098;24.876;2023-09-18T09:34:34;100144.53;;;26.92;40.68
44839;BME280;30576;42.098;24.876;2023-09-18T09:37:11;100132.63;;;26.70;40.37
44839;BME280;30576;42.098;24.876;2023-09-18T09:40:07;100151.13;;;26.39;40.08
44839;BME280;30576;42.098;24.876;2023-09-18T09:42:44;100164.91;;;27.09;40.33
44839;BME280;30576;42.098;24.876;2023-09-18T09:45:16;100172.00;;;27.34;40.47
44839;BME280;30576;42.098;24.876;2023-09-18T09:47:42;100172.19;;;27.55;39.25
44839;BME280;30576;42.098;24.876;2023-09-18T09:50:10;100167.00;;;27.52;40.24
44839;BME280;30576;42.098;24.876;2023-09-18T09:52:41;100119.13;;;27.64;39.42
44839;BME280;30576;42.098;24.876;2023-09-18T09:55:34;100141.38;;;27.33;39.65
44839;BME280;30576;42.098;24.876;2023-09-18T09:58:01;100123.72;;;26.92;39.67
44839;BME280;30576;42.098;24.876;2023-09-18T10:00:33;100193.63;;;26.98;39.71
44839;BME280;30576;42.098;24.876;2023-09-18T10:03:12;100128.53;;;26.40;40.54
44839;BME280;30576;42.098;24.876;2023-09-18T10:05:42;100138.22;;;26.43;39.78
44839;BME280;30576;42.098;24.876;2023-09-18T10:08:14;100109.56;;;26.65;39.38
44839;BME280;30576;42.098;24.876;2023-09-18T10:10:51;100141.03;;;26.78;38.99
44839;BME280;30576;42.098;24.876;2023-09-18T10:13:24;100119.00;;;26.72;39.26
44839;BME280;30576;42.098;24.876;2023-09-18T10:15:53;100131.56;;;26.60;39.10
44839;BME280;30576;42.098;24.876;2023-09-18T10:18:31;100122.03;;;26.67;39.33
44839;BME280;30576;42.098;24.876;2023-09-18T10:21:38;100137.94;;;26.72;38.18
44839;BME280;30576;42.098;24.876;2023-09-18T10:26:56;100120.44;;;27.00;41.55
44839;BME280;30576;42.098;24.876;2023-09-18T10:29:24;100115.44;;;27.07;38.93
44839;BME280;30576;42.098;24.876;2023-09-18T10:31:51;100124.78;;;27.14;38.74
44839;BME280;30576;42.098;24.876;2023-09-18T10:34:19;100118.63;;;27.12;38.64
44839;BME280;30576;42.098;24.876;2023-09-18T10:36:47;100118.63;;;27.01;38.95
44839;BME280;30576;42.098;24.876;2023-09-18T10:39:14;100109.69;;;26.87;39.16
44839;BME280;30576;42.098;24.876;2023-09-18T10:41:47;100081.91;;;26.61;39.87
44839;BME280;30576;42.098;24.876;2023-09-18T10:44:16;100065.66;;;26.61;39.25
44839;BME280;30576;42.098;24.876;2023-09-18T10:46:46;100097.84;;;26.77;38.69
44839;BME280;30576;42.098;24.876;2023-09-18T10:49:12;100119.69;;;26.98;38.60
44839;BME280;30576;42.098;24.876;2023-09-18T10:51:38;100087.06;;;26.64;38.83
44839;BME280;30576;42.098;24.876;2023-09-18T10:54:11;100067.53;;;26.36;37.87
44839;BME280;30576;42.098;24.876;2023-09-18T10:56:41;100122.75;;;26.93;37.63
44839;BME280;30576;42.098;24.876;2023-09-18T10:59:08;100069.25;;;26.37;37.83
44839;BME280;30576;42.098;24.876;2023-09-18T11:01:37;100099.31;;;27.05;37.29
44839;BME280;30576;42.098;24.876;2023-09-18T11:04:07;100092.28;;;27.14;38.06
44839;BME280;30576;42.098;24.876;2023-09-18T11:09:26;100049.44;;;26.85;37.28
44839;BME280;30576;42.098;24.876;2023-09-18T11:11:53;100082.50;;;27.36;38.25
44839;BME280;30576;42.098;24.876;2023-09-18T11:14:44;100031.41;;;27.20;37.00
44839;BME280;30576;42.098;24.876;2023-09-18T11:22:37;100064.06;;;27.75;36.02
44839;BME280;30576;42.098;24.876;2023-09-18T11:28:24;100028.56;;;27.66;35.74
44839;BME280;30576;42.098;24.876;2023-09-18T11:30:53;100043.88;;;27.67;34.95
44839;BME280;30576;42.098;24.876;2023-09-18T11:33:37;100099.53;;;28.06;35.33
44839;BME280;30576;42.098;24.876;2023-09-18T11:36:14;100048.41;;;27.56;36.71
44839;BME280;30576;42.098;24.876;2023-09-18T11:38:57;100044.72;;;27.68;35.77
44839;BME280;30576;42.098;24.876;2023-09-18T11:41:25;100044.31;;;28.07;36.68
44839;BME280;30576;42.098;24.876;2023-09-18T11:43:51;100031.00;;;28.03;35.29
44839;BME280;30576;42.098;24.876;2023-09-18T11:46:19;100028.69;;;27.99;34.19
44839;BME280;30576;42.098;24.876;2023-09-18T11:48:47;100067.81;;;28.17;33.67
44839;BME280;30576;42.098;24.876;2023-09-18T11:51:21;100029.56;;;27.99;34.28
44839;BME280;30576;42.098;24.876;2023-09-18T11:53:47;100041.84;;;28.03;33.67
44839;BME280;30576;42.098;24.876;2023-09-18T11:56:15;100030.47;;;28.21;34.34
44839;BME280;30576;42.098;24.876;2023-09-18T11:58:50;100046.13;;;28.29;33.42
44839;BME280;30576;42.098;24.876;2023-09-18T12:01:18;100017.91;;;28.20;32.42
44839;BME280;30576;42.098;24.876;2023-09-18T12:03:44;100038.75;;;28.19;33.00
44839;BME280;30576;42.098;24.876;2023-09-18T12:06:10;100012.56;;;27.63;33.42
44839;BME280;30576;42.098;24.876;2023-09-18T12:08:40;100005.16;;;27.99;33.54
44839;BME280;30576;42.098;24.876;2023-09-18T12:11:06;100015.19;;;28.20;33.66
44839;BME280;30576;42.098;24.876;2023-09-18T12:13:32;100018.09;;;27.96;33.24
44839;BME280;30576;42.098;24.876;2023-09-18T12:16:02;100022.16;;;28.01;34.16
44839;BME280;30576;42.098;24.876;2023-09-18T12:18:34;100055.28;;;28.16;33.13
44839;BME280;30576;42.098;24.876;2023-09-18T12:21:02;100061.75;;;28.36;32.67
44839;BME280;30576;42.098;24.876;2023-09-18T12:23:38;100007.59;;;27.91;32.91
44839;BME280;30576;42.098;24.876;2023-09-18T12:26:04;100026.44;;;28.15;32.57
44839;BME280;30576;42.098;24.876;2023-09-18T12:28:36;100061.16;;;28.21;32.37
44839;BME280;30576;42.098;24.876;2023-09-18T12:31:02;99973.00;;;27.83;33.53
44839;BME280;30576;42.098;24.876;2023-09-18T12:33:35;100043.81;;;28.45;32.12
44839;BME280;30576;42.098;24.876;2023-09-18T12:36:03;99993.31;;;28.00;31.88
44839;BME280;30576;42.098;24.876;2023-09-18T12:38:29;100005.75;;;28.03;31.64
44839;BME280;30576;42.098;24.876;2023-09-18T12:40:55;100004.72;;;28.15;32.53
44839;BME280;30576;42.098;24.876;2023-09-18T12:43:22;99958.91;;;28.12;32.42
44839;BME280;30576;42.098;24.876;2023-09-18T12:45:49;99985.19;;;28.00;31.45
44839;BME280;30576;42.098;24.876;2023-09-18T12:48:15;99965.97;;;27.92;30.79
44839;BME280;30576;42.098;24.876;2023-09-18T12:50:41;99981.94;;;28.18;30.50
44839;BME280;30576;42.098;24.876;2023-09-18T12:53:11;99990.34;;;28.03;30.04
44839;BME280;30576;42.098;24.876;2023-09-18T12:56:10;99949.31;;;27.19;30.59
44839;BME280;30576;42.098;24.876;2023-09-18T12:58:38;99948.19;;;27.22;31.86
44839;BME280;30576;42.098;24.876;2023-09-18T13:01:08;99941.94;;;27.44;30.15
44839;BME280;30576;42.098;24.876;2023-09-18T13:03:45;99945.44;;;27.78;29.81
44839;BME280;30576;42.098;24.876;2023-09-18T13:06:15;99937.00;;;27.15;30.53
44839;BME280;30576;42.098;24.876;2023-09-18T13:08:51;99968.59;;;27.71;29.96
44839;BME280;30576;42.098;24.876;2023-09-18T13:11:18;99968.25;;;27.64;29.18
44839;BME280;30576;42.098;24.876;2023-09-18T13:13:44;99923.78;;;27.67;30.17
44839;BME280;30576;42.098;24.876;2023-09-18T13:16:10;99951.19;;;27.96;29.83
44839;BME280;30576;42.098;24.876;2023-09-18T13:18:37;99962.75;;;28.31;30.64
44839;BME280;30576;42.098;24.876;2023-09-18T13:21:12;99928.56;;;28.39;29.39
44839;BME280;30576;42.098;24.876;2023-09-18T13:23:39;99931.69;;;28.35;28.82
44839;BME280;30576;42.098;24.876;2023-09-18T13:26:07;99926.91;;;27.83;28.58
44839;BME280;30576;42.098;24.876;2023-09-18T13:28:37;99956.78;;;27.72;28.61
44839;BME280;30576;42.098;24.876;2023-09-18T13:31:05;99966.47;;;27.86;28.61
44839;BME280;30576;42.098;24.876;2023-09-18T13:33:32;99969.06;;;27.87;28.54
44839;BME280;30576;42.098;24.876;2023-09-18T13:35:59;99946.38;;;28.00;28.27
44839;BME280;30576;42.098;24.876;2023-09-18T13:38:25;99991.28;;;28.46;28.34
44839;BME280;30576;42.098;24.876;2023-09-18T13:40:53;99928.34;;;28.31;28.21
44839;BME280;30576;42.098;24.876;2023-09-18T13:43:19;99966.06;;;28.55;27.57
44839;BME280;30576;42.098;24.876;2023-09-18T13:45:47;99902.16;;;27.99;27.75
44839;BME280;30576;42.098;24.876;2023-09-18T13:48:13;99933.69;;;27.89;28.91
44839;BME280;30576;42.098;24.876;2023-09-18T13:50:40;99924.75;;;28.10;27.83
44839;BME280;30576;42.098;24.876;2023-09-18T13:53:06;99926.19;;;27.81;28.26
44839;BME280;30576;42.098;24.876;2023-09-18T13:55:33;99923.16;;;27.75;28.48
44839;BME280;30576;42.098;24.876;2023-09-18T13:57:58;99887.59;;;28.00;28.61
44839;BME280;30576;42.098;24.876;2023-09-18T14:00:24;99923.19;;;28.28;27.49
44839;BME280;30576;42.098;24.876;2023-09-18T14:02:52;99894.38;;;27.95;27.45
44839;BME280;30576;42.098;24.876;2023-09-18T14:05:17;99914.91;;;27.76;27.62
44839;BME280;30576;42.098;24.876;2023-09-18T14:07:45;99898.06;;;27.94;28.32
44839;BME280;30576;42.098;24.876;2023-09-18T14:10:14;99905.31;;;28.04;28.20
44839;BME280;30576;42.098;24.876;2023-09-18T14:12:41;99929.50;;;27.96;28.04
44839;BME280;30576;42.098;24.876;2023-09-18T14:15:30;99919.97;;;27.58;28.22
44839;BME280;30576;42.098;24.876;2023-09-18T14:17:55;99901.28;;;27.55;28.35
44839;BME280;30576;42.098;24.876;2023-09-18T14:20:21;99930.97;;;28.00;28.24
44839;BME280;30576;42.098;24.876;2023-09-18T14:22:47;99938.09;;;28.34;27.70
44839;BME280;30576;42.098;24.876;2023-09-18T14:25:16;99904.22;;;28.49;27.84
44839;BME280;30576;42.098;24.876;2023-09-18T14:27:41;99895.13;;;28.39;26.94